createdAt,value
2022-12-13T00:01:22.526Z,99893.03
2022-12-13T00:03:49.373Z,99903.41
2022-12-13T00:06:16.257Z,99910.56
2022-12-13T00:08:43.020Z,99920.00
2022-12-13T00:11:12.587Z,99915.66
2022-12-13T00:13:41.710Z,99904.78
2022-12-13T00:16:12.441Z,99898.25
2022-12-13T00:18:39.321Z,99896.81
2022-12-13T00:21:07.891Z,99899.41
2022-12-13T00:23:35.142Z,99895.94
2022-12-13T00:26:04.208Z,99885.97
2022-12-13T00:28:30.906Z,99879.59
2022-12-13T00:31:13.555Z,99873.13
2022-12-13T00:33:46.170Z,99864.56
2022-12-13T00:36:13.264Z,99875.38
2022-12-13T00:38:40.063Z,99873.56
2022-12-13T00:41:11.584Z,99878.94
2022-12-13T00:43:38.274Z,99873.41
2022-12-13T00:46:07.880Z,99860.94
2022-12-13T00:48:34.623Z,99882.78
2022-12-13T00:51:06.614Z,99879.13
2022-12-13T00:53:33.249Z,99879.53
2022-12-13T00:55:59.981Z,99893.03
2022-12-13T00:58:26.796Z,99884.84
2022-12-13T01:00:53.580Z,99888.75
2022-12-13T01:03:20.666Z,99894.72
2022-12-13T01:06:14.490Z,99889.38
2022-12-13T01:08:34.856Z,99885.72
2022-12-13T01:11:01.688Z,99897.81
2022-12-13T01:13:28.418Z,99900.47
2022-12-13T01:15:55.172Z,99914.59
2022-12-13T01:18:21.903Z,99917.25
2022-12-13T01:21:03.866Z,99921.81
2022-12-13T01:23:31.029Z,99909.94
2022-12-13T01:25:57.683Z,99909.53
2022-12-13T01:28:25.149Z,99924.28
2022-12-13T01:31:03.355Z,99918.78
2022-12-13T01:33:30.697Z,99918.78
2022-12-13T01:36:00.484Z,99928.78
2022-12-13T01:38:27.217Z,99923.09
2022-12-13T01:40:58.965Z,99924.72
2022-12-13T01:43:50.454Z,99930.69
2022-12-13T01:46:18.376Z,99920.66
2022-12-13T01:49:01.945Z,99922.09
2022-12-13T01:51:39.819Z,99932.53
2022-12-13T01:54:11.248Z,99940.91
2022-12-13T01:56:43.573Z,99946.84
2022-12-13T01:59:12.540Z,99954.38
2022-12-13T02:01:40.235Z,99962.34
2022-12-13T02:04:08.035Z,99956.84
2022-12-13T02:06:39.882Z,99974.22
2022-12-13T02:09:07.941Z,99985.69
2022-12-13T02:11:37.102Z,99985.88
2022-12-13T02:14:05.488Z,99989.34
2022-12-13T02:16:46.211Z,99982.59
2022-12-13T02:19:28.072Z,99971.56
2022-12-13T02:22:06.748Z,99971.56
2022-12-13T02:24:36.395Z,99977.06
2022-12-13T02:27:42.689Z,99976.06
2022-12-13T02:30:25.102Z,99987.91
2022-12-13T02:32:57.835Z,99982.19
2022-12-13T02:36:02.978Z,99976.88
2022-12-13T02:38:45.677Z,99982.00
2022-12-13T02:41:27.997Z,99985.09
2022-12-13T02:44:01.726Z,99991.84
2022-12-13T02:46:33.254Z,99987.97
2022-12-13T02:49:00.827Z,99984.72
2022-12-13T02:51:28.982Z,99991.28
2022-12-13T02:53:55.671Z,99977.56
2022-12-13T02:56:22.309Z,99993.16
2022-12-13T02:58:55.683Z,99990.25
2022-12-13T03:01:29.081Z,99986.97
2022-12-13T03:04:33.796Z,99977.97
2022-12-13T03:07:12.713Z,99984.72
2022-12-13T03:09:58.614Z,99985.56
2022-12-13T03:12:43.672Z,99985.72
2022-12-13T03:15:34.728Z,99985.31
2022-12-13T03:18:15.384Z,99995.31
2022-12-13T03:21:05.004Z,99989.00
2022-12-13T03:23:32.051Z,100000.03
2022-12-13T03:26:15.108Z,100005.75
2022-12-13T03:28:41.901Z,99992.19
2022-12-13T03:31:09.132Z,99991.22
2022-12-13T03:33:36.379Z,99989.97
2022-12-13T03:36:05.279Z,99985.28
2022-12-13T03:38:32.310Z,99988.94
2022-12-13T03:41:10.712Z,99993.88
2022-12-13T03:43:38.917Z,99991.00
2022-12-13T03:46:05.836Z,99998.78
2022-12-13T03:48:32.679Z,100003.91
2022-12-13T03:50:59.482Z,100000.59
2022-12-13T03:53:33.147Z,100002.44
2022-12-13T03:56:06.200Z,100001.66
2022-12-13T03:58:36.157Z,100008.56
2022-12-13T04:01:09.675Z,100010.19
2022-12-13T04:03:37.074Z,100012.72
2022-12-13T04:06:04.725Z,100017.78
2022-12-13T04:08:31.570Z,100011.38
2022-12-13T04:10:58.319Z,100000.13
2022-12-13T04:13:33.893Z,99985.53
2022-12-13T04:16:02.336Z,99997.69
2022-12-13T04:18:29.173Z,99999.19
2022-12-13T04:20:57.436Z,99999.66
2022-12-13T04:23:24.457Z,99990.94
2022-12-13T04:25:51.688Z,99985.66
2022-12-13T04:28:21.967Z,99983.22
2022-12-13T04:30:53.550Z,99972.38
2022-12-13T04:33:22.537Z,99956.63
2022-12-13T04:35:50.170Z,99960.72
2022-12-13T04:38:16.841Z,99954.19
2022-12-13T04:40:43.463Z,99958.69
2022-12-13T04:43:10.331Z,99970.75
2022-12-13T04:45:37.007Z,99969.53
2022-12-13T04:48:04.253Z,99970.13
2022-12-13T04:50:32.655Z,99964.81
2022-12-13T04:52:59.391Z,99966.66
2022-12-13T04:55:26.189Z,99965.63
2022-12-13T04:57:52.885Z,99953.53
2022-12-13T05:00:22.050Z,99957.00
2022-12-13T05:02:49.143Z,99955.72
2022-12-13T05:05:16.214Z,99947.66
2022-12-13T05:07:43.186Z,99960.97
2022-12-13T05:10:11.366Z,99979.13
2022-12-13T05:12:38.091Z,99973.44
2022-12-13T05:15:05.567Z,99969.13
2022-12-13T05:17:32.289Z,99975.06
2022-12-13T05:19:58.930Z,99970.38
2022-12-13T05:22:25.889Z,99973.81
2022-12-13T05:24:52.653Z,99975.00
2022-12-13T05:27:24.425Z,99973.41
2022-12-13T05:30:02.250Z,99960.09
2022-12-13T05:32:43.524Z,99971.94
2022-12-13T05:35:22.490Z,99975.00
2022-12-13T05:37:55.051Z,99983.38
2022-12-13T05:40:23.458Z,99989.97
2022-12-13T05:42:50.274Z,99987.91
2022-12-13T05:45:20.614Z,99993.22
2022-12-13T05:47:47.819Z,100003.03
2022-12-13T05:50:16.244Z,100001.59
2022-12-13T05:52:45.241Z,100002.13
2022-12-13T05:55:12.243Z,100013.59
2022-12-13T05:57:39.063Z,100010.75
2022-12-13T06:00:29.854Z,100003.19
2022-12-13T06:02:56.776Z,100022.38
2022-12-13T06:05:27.684Z,100023.78
2022-12-13T06:07:57.324Z,100022.34
2022-12-13T06:10:25.036Z,100035.97
2022-12-13T06:13:20.865Z,100023.00
2022-12-13T06:15:48.176Z,100035.09
2022-12-13T06:18:15.432Z,100035.59
2022-12-13T06:20:42.125Z,100030.91
2022-12-13T06:23:08.770Z,100033.31
2022-12-13T06:25:36.809Z,100036.88
2022-12-13T06:28:03.565Z,100041.13
2022-12-13T06:30:31.206Z,100051.47
2022-12-13T06:32:58.019Z,100042.31
2022-12-13T06:35:28.940Z,100043.13
2022-12-13T06:38:00.869Z,100048.88
2022-12-13T06:40:30.446Z,100039.75
2022-12-13T06:42:57.833Z,100044.84
2022-12-13T06:45:25.026Z,100060.97
2022-12-13T06:47:51.746Z,100069.16
2022-12-13T06:50:18.436Z,100072.91
2022-12-13T06:52:47.221Z,100075.19
2022-12-13T06:55:14.464Z,100059.47
2022-12-13T06:57:41.856Z,100057.47
2022-12-13T07:00:10.286Z,100049.09
2022-12-13T07:02:38.464Z,100056.88
2022-12-13T07:05:05.711Z,100056.88
2022-12-13T07:07:32.586Z,100058.09
2022-12-13T07:09:59.650Z,100061.63
2022-12-13T07:12:26.629Z,100065.59
2022-12-13T07:14:53.420Z,100068.50
2022-12-13T07:17:33.735Z,100074.72
2022-12-13T07:20:08.474Z,100078.31
2022-12-13T07:22:39.909Z,100088.16
2022-12-13T07:25:27.863Z,100078.56
2022-12-13T07:28:05.589Z,100069.19
2022-12-13T07:30:40.987Z,100078.41
2022-12-13T07:33:09.322Z,100071.00
2022-12-13T07:35:37.029Z,100064.28
2022-12-13T07:38:10.020Z,100072.91
2022-12-13T07:40:38.438Z,100077.56
2022-12-13T07:43:06.216Z,100073.91
2022-12-13T07:45:33.318Z,100093.00
2022-12-13T07:48:04.437Z,100089.47
2022-12-13T07:50:37.663Z,100084.34
2022-12-13T07:53:06.724Z,100082.72
2022-12-13T07:55:34.192Z,100098.78
2022-12-13T07:58:12.180Z,100101.31
2022-12-13T08:00:41.127Z,100097.47
2022-12-13T08:03:25.343Z,100114.13
2022-12-13T08:06:08.503Z,100104.69
2022-12-13T08:08:35.770Z,100105.75
2022-12-13T08:11:15.495Z,100110.44
2022-12-13T08:13:42.329Z,100118.84
2022-12-13T08:16:26.373Z,100121.56
2022-12-13T08:19:01.847Z,100119.91
2022-12-13T08:21:57.144Z,100126.53
2022-12-13T08:24:26.775Z,100138.81
2022-12-13T08:26:55.196Z,100158.44
2022-12-13T08:29:22.819Z,100153.56
2022-12-13T08:32:01.372Z,100170.97
2022-12-13T08:34:28.275Z,100159.31
2022-12-13T08:37:01.784Z,100149.94
2022-12-13T08:39:36.117Z,100153.41
2022-12-13T08:42:16.783Z,100156.06
2022-12-13T08:44:45.916Z,100153.63
2022-12-13T08:47:23.461Z,100152.47
2022-12-13T08:50:03.199Z,100145.78
2022-12-13T08:52:39.156Z,100146.66
2022-12-13T08:55:12.442Z,100143.22
2022-12-13T08:57:40.812Z,100148.31
2022-12-13T09:00:11.465Z,100149.38
2022-12-13T09:02:39.084Z,100147.81
2022-12-13T09:05:08.282Z,100149.50
2022-12-13T09:07:36.539Z,100154.84
2022-12-13T09:10:25.246Z,100154.47
2022-12-13T09:12:53.704Z,100158.19
2022-12-13T09:15:33.771Z,100152.91
2022-12-13T09:18:04.736Z,100154.56
2022-12-13T09:20:41.336Z,100154.75
2022-12-13T09:23:13.902Z,100159.88
2022-12-13T09:26:05.524Z,100160.47
2022-12-13T09:28:34.880Z,100163.97
2022-12-13T09:31:01.646Z,100167.91
2022-12-13T09:33:30.856Z,100168.94
2022-12-13T09:35:57.948Z,100176.34
2022-12-13T09:38:24.685Z,100184.13
2022-12-13T09:40:59.116Z,100193.16
2022-12-13T09:43:42.443Z,100191.53
2022-12-13T09:46:22.549Z,100188.41
2022-12-13T09:49:01.693Z,100191.69
2022-12-13T09:51:41.427Z,100198.06
2022-12-13T09:54:18.409Z,100197.88
2022-12-13T09:56:50.766Z,100191.69
2022-12-13T09:59:36.206Z,100199.19
2022-12-13T10:02:16.016Z,100206.97
2022-12-13T10:04:43.329Z,100201.25
2022-12-13T10:07:24.945Z,100207.44
2022-12-13T10:10:01.348Z,100208.88
2022-12-13T10:12:29.008Z,100206.63
2022-12-13T10:14:59.575Z,100210.78
2022-12-13T10:17:32.971Z,100187.66
2022-12-13T10:20:06.420Z,100176.22
2022-12-13T10:22:33.221Z,100177.81
2022-12-13T10:25:04.675Z,100175.59
2022-12-13T10:27:45.548Z,100173.63
2022-12-13T10:30:29.209Z,100173.66
2022-12-13T10:33:02.681Z,100167.13
2022-12-13T10:35:31.095Z,100161.19
2022-12-13T10:38:00.664Z,100155.28
2022-12-13T10:40:33.304Z,100150.59
2022-12-13T10:43:07.647Z,100153.69
2022-12-13T10:45:34.867Z,100154.75
2022-12-13T10:48:04.406Z,100154.34
2022-12-13T10:50:31.930Z,100154.53
2022-12-13T10:53:00.596Z,100139.97
2022-12-13T10:55:39.735Z,100141.00
2022-12-13T10:58:09.739Z,100131.56
2022-12-13T11:00:47.450Z,100131.78
2022-12-13T11:03:30.739Z,100129.09
2022-12-13T11:06:19.875Z,100128.91
2022-12-13T11:08:46.738Z,100120.47
2022-12-13T11:11:17.186Z,100122.28
2022-12-13T11:13:52.938Z,100124.56
2022-12-13T11:16:41.702Z,100122.50
2022-12-13T11:19:17.526Z,100118.00
2022-12-13T11:21:50.362Z,100118.81
2022-12-13T11:24:23.867Z,100118.81
2022-12-13T11:27:29.183Z,100114.50
2022-12-13T11:30:17.432Z,100119.22
2022-12-13T11:33:15.572Z,100114.50
2022-12-13T11:36:07.580Z,100109.94
2022-12-13T11:38:56.467Z,100106.84
2022-12-13T11:41:38.462Z,100101.72
2022-12-13T11:44:20.341Z,100095.50
2022-12-13T11:46:52.004Z,100092.00
2022-12-13T11:49:35.417Z,100091.19
2022-12-13T11:52:30.876Z,100092.81
2022-12-13T11:55:14.883Z,100087.44
2022-12-13T11:57:51.644Z,100082.47
2022-12-13T12:00:35.392Z,100079.00
2022-12-13T12:03:20.239Z,100074.06
2022-12-13T12:06:02.790Z,100075.66
2022-12-13T12:08:38.298Z,100075.47
2022-12-13T12:11:24.732Z,100073.44
2022-12-13T12:13:57.187Z,100061.53
2022-12-13T12:16:42.793Z,100050.41
2022-12-13T12:19:19.026Z,100037.03
2022-12-13T12:22:14.529Z,100037.97
2022-12-13T12:24:57.361Z,100028.28
2022-12-13T12:27:31.685Z,100024.16
2022-12-13T12:30:08.643Z,100029.84
2022-12-13T12:32:44.078Z,100023.63
2022-12-13T12:35:19.747Z,100027.66
2022-12-13T12:38:25.731Z,100023.69
2022-12-13T12:41:18.043Z,100022.22
2022-12-13T12:43:47.686Z,100021.53
2022-12-13T12:47:09.201Z,100021.31
2022-12-13T12:50:10.956Z,100017.97
2022-12-13T12:52:43.298Z,100017.69
2022-12-13T12:55:28.900Z,100009.09
2022-12-13T12:58:03.468Z,100001.22
2022-12-13T13:00:48.309Z,99992.72
2022-12-13T13:03:23.167Z,99991.66
2022-12-13T13:06:02.039Z,99996.59
2022-12-13T13:08:43.959Z,99994.50
2022-12-13T13:11:24.965Z,99992.22
2022-12-13T13:14:01.670Z,99981.34
2022-12-13T13:16:40.899Z,99984.69
2022-12-13T13:19:25.800Z,99978.16
2022-12-13T13:22:01.966Z,99995.81
2022-12-13T13:24:32.796Z,100006.53
2022-12-13T13:27:19.449Z,99991.13
2022-12-13T13:29:46.358Z,99991.56
2022-12-13T13:32:27.905Z,99989.06
2022-12-13T13:35:35.518Z,99992.97
2022-12-13T13:38:06.551Z,99991.34
2022-12-13T13:40:35.556Z,99995.50
2022-12-13T13:43:02.178Z,99992.22
2022-12-13T13:45:29.374Z,99995.28
2022-12-13T13:48:14.912Z,99997.50
2022-12-13T13:51:14.014Z,100002.63
2022-12-13T13:53:40.700Z,99996.31
2022-12-13T13:56:25.555Z,99996.75
2022-12-13T13:59:04.304Z,99984.84
2022-12-13T14:02:01.173Z,99991.09
2022-12-13T14:04:46.688Z,99982.91
2022-12-13T14:07:40.658Z,99984.56
2022-12-13T14:10:16.332Z,99976.16
2022-12-13T14:12:51.771Z,99978.81
2022-12-13T14:15:55.465Z,99983.31
2022-12-13T14:18:53.598Z,99996.00
2022-12-13T14:21:32.426Z,99999.66
2022-12-13T14:24:17.430Z,100007.00
2022-12-13T14:27:08.981Z,100022.41
2022-12-13T14:29:48.181Z,100024.25
2022-12-13T14:32:27.193Z,100024.69
2022-12-13T14:34:55.542Z,100033.63
2022-12-13T14:37:33.007Z,100042.72
2022-12-13T14:40:01.259Z,100038.19
2022-12-13T14:42:36.207Z,100038.84
2022-12-13T14:45:21.615Z,100038.84
2022-12-13T14:47:48.353Z,100026.94
2022-12-13T14:50:20.497Z,100032.53
2022-12-13T14:52:50.614Z,100039.34
2022-12-13T14:55:30.326Z,100039.34
2022-12-13T14:58:00.167Z,100034.22
2022-12-13T15:00:31.908Z,100028.25
2022-12-13T15:03:00.823Z,100029.09
2022-12-13T15:05:45.747Z,100021.88
2022-12-13T15:08:19.522Z,100020.44
2022-12-13T15:10:49.623Z,100018.63
2022-12-13T15:13:37.105Z,100008.50
2022-12-13T15:16:11.187Z,100004.41
2022-12-13T15:19:10.937Z,100017.19
2022-12-13T15:22:06.109Z,100023.56
2022-12-13T15:24:39.158Z,100031.19
2022-12-13T15:27:22.618Z,100024.00
2022-12-13T15:29:50.600Z,100009.00
2022-12-13T15:32:19.869Z,100007.13
2022-12-13T15:34:47.658Z,100011.69
2022-12-13T15:37:28.506Z,99999.56
2022-12-13T15:40:01.233Z,99994.22
2022-12-13T15:42:35.258Z,100004.09
2022-12-13T15:45:06.484Z,100009.88
2022-12-13T15:47:33.558Z,100008.03
2022-12-13T15:50:06.002Z,100013.59
2022-12-13T15:52:39.836Z,100015.22
2022-12-13T15:55:09.037Z,100015.44
2022-12-13T15:57:49.429Z,100006.59
2022-12-13T16:00:20.156Z,100008.25
2022-12-13T16:03:08.674Z,100000.00
2022-12-13T16:05:38.858Z,99990.97
2022-12-13T16:08:13.994Z,99990.13
2022-12-13T16:10:47.492Z,99997.09
2022-12-13T16:13:31.581Z,99988.06
2022-12-13T16:16:27.957Z,99984.56
2022-12-13T16:19:00.559Z,99990.13
2022-12-13T16:21:28.514Z,99991.75
2022-12-13T16:23:55.471Z,99990.97
2022-12-13T16:26:26.128Z,99993.84
2022-12-13T16:28:54.165Z,99995.47
2022-12-13T16:31:27.871Z,99990.13
2022-12-13T16:33:54.635Z,99991.38
2022-12-13T16:36:21.279Z,99985.22
2022-12-13T16:38:48.890Z,99986.25
2022-12-13T16:41:16.373Z,99983.78
2022-12-13T16:44:03.696Z,99967.75
2022-12-13T16:47:17.243Z,99977.47
2022-12-13T16:49:24.198Z,99983.03
2022-12-13T16:51:52.142Z,99972.56
2022-12-13T16:54:22.250Z,99961.06
2022-12-13T16:56:49.701Z,99949.31
2022-12-13T16:59:20.406Z,99944.81
2022-12-13T17:01:47.274Z,99940.28
2022-12-13T17:04:20.689Z,99941.31
2022-12-13T17:06:54.639Z,99942.16
2022-12-13T17:09:23.122Z,99937.22
2022-12-13T17:11:50.011Z,99953.69
2022-12-13T17:14:17.858Z,99950.44
2022-12-13T17:16:44.577Z,99957.38
2022-12-13T17:19:14.631Z,99950.44
2022-12-13T17:21:41.428Z,99961.13
2022-12-13T17:24:08.352Z,99958.00
2022-12-13T17:26:35.327Z,99961.25
2022-12-13T17:29:02.046Z,99943.38
2022-12-13T17:31:35.152Z,99939.06
2022-12-13T17:34:02.924Z,99949.75
2022-12-13T17:36:31.540Z,99948.97
2022-12-13T17:38:59.070Z,99959.44
2022-12-13T17:41:25.752Z,99947.72
2022-12-13T17:43:52.487Z,99943.16
2022-12-13T17:46:19.671Z,99938.63
2022-12-13T17:48:46.728Z,99933.91
2022-12-13T17:51:14.518Z,99925.88
2022-12-13T17:53:42.902Z,99935.38
2022-12-13T17:56:12.400Z,99936.41
2022-12-13T17:58:40.180Z,99935.38
2022-12-13T18:01:16.886Z,99932.53
2022-12-13T18:03:44.882Z,99926.16
2022-12-13T18:06:12.065Z,99933.16
2022-12-13T18:08:40.607Z,99922.47
2022-12-13T18:11:31.755Z,99925.31
2022-12-13T18:13:55.787Z,99930.47
2022-12-13T18:16:26.693Z,99933.72
2022-12-13T18:21:41.872Z,99936.22
2022-12-13T18:24:10.298Z,99936.00
2022-12-13T18:26:37.112Z,99937.88
2022-12-13T18:29:04.689Z,99928.63
2022-12-13T18:31:31.460Z,99928.63
2022-12-13T18:33:58.177Z,99919.78
2022-12-13T18:36:25.610Z,99926.75
2022-12-13T18:38:53.040Z,99934.75
2022-12-13T18:41:23.281Z,99924.06
2022-12-13T18:43:59.551Z,99921.41
2022-12-13T18:46:28.118Z,99928.63
2022-12-13T18:48:55.137Z,99933.94
2022-12-13T18:51:21.747Z,99937.66
2022-12-13T18:53:48.716Z,99932.31
2022-12-13T18:56:19.043Z,99932.31
2022-12-13T18:58:48.238Z,99937.66
2022-12-13T19:01:16.563Z,99937.66
2022-12-13T19:03:45.819Z,99930.09
2022-12-13T19:06:21.864Z,99931.50
2022-12-13T19:08:51.383Z,99930.25
2022-12-13T19:11:19.243Z,99929.41
2022-12-13T19:13:46.242Z,99935.59
2022-12-13T19:16:15.486Z,99929.63
2022-12-13T19:18:42.591Z,99927.81
2022-12-13T19:21:13.819Z,99910.94
2022-12-13T19:23:41.004Z,99921.63
2022-12-13T19:26:09.520Z,99908.50
2022-12-13T19:28:38.145Z,99912.81
2022-12-13T19:31:05.866Z,99914.63
2022-12-13T19:33:32.937Z,99924.06
2022-12-13T19:36:00.204Z,99926.16
2022-12-13T19:38:27.027Z,99922.47
2022-12-13T19:40:53.854Z,99926.16
2022-12-13T19:43:21.354Z,99932.53
2022-12-13T19:45:49.023Z,99920.81
2022-12-13T19:48:16.109Z,99919.63
2022-12-13T19:50:44.355Z,99908.59
2022-12-13T19:53:11.816Z,99906.59
2022-12-13T19:55:45.425Z,99899.22
2022-12-13T19:58:14.807Z,99901.25
2022-12-13T20:00:41.525Z,99909.03
2022-12-13T20:03:08.485Z,99888.50
2022-12-13T20:05:36.119Z,99885.00
2022-12-13T20:08:03.028Z,99890.94
2022-12-13T20:10:29.696Z,99893.19
2022-12-13T20:12:56.620Z,99888.06
2022-12-13T20:15:23.267Z,99879.19
2022-12-13T20:17:51.733Z,99862.97
2022-12-13T20:20:21.541Z,99861.34
2022-12-13T20:22:48.618Z,99861.34
2022-12-13T20:25:15.424Z,99857.41
2022-12-13T20:27:42.177Z,99851.25
2022-12-13T20:30:09.321Z,99848.56
2022-12-13T20:32:36.039Z,99849.00
2022-12-13T20:35:02.823Z,99828.91
2022-12-13T20:37:30.134Z,99830.31
2022-12-13T20:39:56.929Z,99839.13
2022-12-13T20:42:23.625Z,99842.22
2022-12-13T20:44:50.969Z,99852.44
2022-12-13T20:47:17.664Z,99842.75
2022-12-13T20:49:44.368Z,99833.31
2022-12-13T20:52:15.595Z,99830.50
2022-12-13T20:54:42.243Z,99832.72
2022-12-13T20:57:09.190Z,99838.53
2022-12-13T20:59:36.549Z,99834.44
2022-12-13T21:02:03.460Z,99820.25
2022-12-13T21:04:30.453Z,99817.00
2022-12-13T21:06:57.230Z,99815.59
2022-12-13T21:09:23.864Z,99812.53
2022-12-13T21:11:50.636Z,99811.94
2022-12-13T21:14:23.051Z,99802.19
2022-12-13T21:16:55.838Z,99792.22
2022-12-13T21:19:39.331Z,99784.63
2022-12-13T21:22:06.827Z,99766.34
2022-12-13T21:24:36.440Z,99761.38
2022-12-13T21:27:03.187Z,99762.56
2022-12-13T21:29:29.940Z,99765.41
2022-12-13T21:31:56.694Z,99766.03
2022-12-13T21:34:23.435Z,99762.09
2022-12-13T21:36:54.510Z,99757.34
2022-12-13T21:39:24.028Z,99755.47
2022-12-13T21:41:51.099Z,99759.00
2022-12-13T21:44:19.324Z,99755.69
2022-12-13T21:47:11.259Z,99754.50
2022-12-13T21:49:33.772Z,99728.94
2022-12-13T21:52:00.431Z,99740.72
2022-12-13T21:54:27.216Z,99738.91
2022-12-13T21:57:12.888Z,99736.59
2022-12-13T21:59:39.688Z,99711.53
2022-12-13T22:02:12.433Z,99711.59
2022-12-13T22:04:53.613Z,99715.09
2022-12-13T22:07:29.535Z,99715.25
2022-12-13T22:09:57.207Z,99717.06
2022-12-13T22:12:35.857Z,99714.16
2022-12-13T22:15:04.708Z,99700.44
2022-12-13T22:17:35.719Z,99693.63
2022-12-13T22:20:09.380Z,99691.13
2022-12-13T22:22:41.438Z,99688.44
2022-12-13T22:25:08.743Z,99679.63
2022-12-13T22:27:35.388Z,99677.09
2022-12-13T22:30:02.128Z,99679.75
2022-12-13T22:32:30.707Z,99673.97
2022-12-13T22:35:10.267Z,99674.34
2022-12-13T22:37:36.994Z,99677.59
2022-12-13T22:40:04.508Z,99683.78
2022-12-13T22:42:31.200Z,99690.31
2022-12-13T22:44:57.956Z,99697.47
2022-12-13T22:47:24.660Z,99709.81
2022-12-13T22:49:51.536Z,99702.25
2022-12-13T22:52:18.272Z,99699.41
2022-12-13T22:54:44.893Z,99704.28
2022-12-13T22:57:11.636Z,99712.78
2022-12-13T22:59:38.303Z,99701.59
2022-12-13T23:02:05.060Z,99700.66
2022-12-13T23:04:34.729Z,99683.09
2022-12-13T23:07:01.559Z,99683.09
2022-12-13T23:09:28.247Z,99679.53
2022-12-13T23:12:13.481Z,99689.13
2022-12-13T23:14:40.220Z,99689.19
2022-12-13T23:17:06.962Z,99680.72
2022-12-13T23:19:50.434Z,99683.09
2022-12-13T23:22:22.019Z,99677.44
2022-12-13T23:24:49.372Z,99666.78
2022-12-13T23:27:16.258Z,99665.13
2022-12-13T23:29:42.955Z,99672.28
2022-12-13T23:32:09.732Z,99662.38
2022-12-13T23:34:37.367Z,99670.78
2022-12-13T23:37:04.818Z,99669.50
2022-12-13T23:39:31.502Z,99657.28
2022-12-13T23:41:58.227Z,99670.81
2022-12-13T23:44:24.976Z,99652.59
2022-12-13T23:46:51.709Z,99631.91
2022-12-13T23:49:19.348Z,99629.44
2022-12-13T23:51:46.061Z,99622.88
2022-12-13T23:54:16.592Z,99624.75
2022-12-13T23:56:43.867Z,99611.53
2022-12-13T23:59:10.810Z,99606.38
